Clara — A8ZE5 — position and weather

sailwx.info

Track history (hours):
 
Tides and Currents Weather Stations Pressure Air Temp Water Temp Dewpoint Dewpoint Depression Visibility Wind Speed Wind Dir Waves Ship Positions

Clara

Last reported at 2017-Sep-25 08:42 UTC. Time now 2017-Sep-25 09:55 UTC.
Position N 49°54' W 002°29'.

Length 225 m; draft 8.6 m.

Type: Cargo ship. MMSI: 636092248.

Date/timePositionNaut miles runAvg speedWind from/ knotsBaromVisibWave heightAir tempDewpointWater temp
2017-Sep-25 08:42N 49°54' W 002°29'414.1
2017-Sep-25 08:25N 49°53' W 002°35'613.9
2017-Sep-25 08:00N 49°51' W 002°44'713.4
2017-Sep-25 07:30N 49°49' W 002°53'613.1
2017-Sep-25 07:01N 49°45' W 003°02'612.8
2017-Sep-25 06:31N 49°42' W 003°10'612.6
2017-Sep-25 06:00N 49°39' W 003°19'712.5
2017-Sep-25 05:29N 49°36' W 003°28'712.5
2017-Sep-25 04:58N 49°32' W 003°36'612.3
2017-Sep-25 04:29N 49°29' W 003°44'712.1
2017-Sep-25 03:52N 49°26' W 003°54'511.8
2017-Sep-25 03:25N 49°23' W 004°01'1211.6
2017-Sep-25 02:22N 49°17' W 004°18'411.3
2017-Sep-25 02:00N 49°15' W 004°23'1210.9
2017-Sep-25 00:56N 49°09' W 004°38'1910.7
2017-Sep-24 23:07N 48°59' W 005°03'110.7
2017-Sep-24 23:00N 48°58' W 005°05'611.0
2017-Sep-24 22:28N 48°55' W 005°13'510.9
2017-Sep-24 21:59N 48°53' W 005°20'510.9
2017-Sep-24 21:29N 48°50' W 005°27'511.1
2017-Sep-24 21:00N 48°48' W 005°35'2511.9
2017-Sep-24 18:53N 48°27' W 005°55'1412.6
2017-Sep-24 17:48N 48°14' W 006°04'1312.8
2017-Sep-24 16:48N 48°03' W 006°12'2812.5
2017-Sep-24 14:33N 47°38' W 006°31'  
2017-Sep-22 02:00N 36°40' W 008°55'611.6
2017-Sep-22 01:30N 36°38' W 008°48'711.8
2017-Sep-22 00:55N 36°36' W 008°40'511.7
2017-Sep-22 00:30N 36°34' W 008°34'711.9
2017-Sep-21 23:54N 36°32' W 008°25'512.2
2017-Sep-21 23:30N 36°31' W 008°20'612.3
2017-Sep-21 23:00N 36°29' W 008°12'612.4
2017-Sep-21 22:30N 36°27' W 008°05'397 9.8
2017-Sep-20 05:59N 36°42' E 000°08'812.6
2017-Sep-20 05:20N 36°44' E 000°18'1312.5
2017-Sep-20 04:19N 36°45' E 000°34'5112.5
2017-Sep-20 00:13N 36°53' E 001°37'38211.8
2017-Sep-18 15:50N 37°39' E 009°34'412.6
2017-Sep-18 15:30N 37°39' E 009°39'12812.4
2017-Sep-18 05:12N 37°01' E 012°13'212.8
2017-Sep-18 05:00N 36°60' E 012°16'612.5
2017-Sep-18 04:29N 36°57' E 012°23'612.5
2017-Sep-18 04:00N 36°55' E 012°30'612.7
2017-Sep-18 03:30N 36°52' E 012°38'612.8
2017-Sep-18 03:00N 36°50' E 012°45'612.8
2017-Sep-18 02:30N 36°47' E 012°52'912.9
2017-Sep-18 01:46N 36°43' E 013°03'312.8
2017-Sep-18 01:30N 36°42' E 013°07'712.8
2017-Sep-18 00:56N 36°39' E 013°15'612.8
2017-Sep-18 00:29N 36°37' E 013°22'612.7
2017-Sep-18 00:00N 36°34' E 013°29'712.4
2017-Sep-17 23:28N 36°31' E 013°36'612.3
2017-Sep-17 23:00N 36°29' E 013°43'612.1
2017-Sep-17 22:30N 36°27' E 013°50'612.1
2017-Sep-17 22:00N 36°25' E 013°57'612.4
2017-Sep-17 21:30N 36°22' E 014°04'612.3
2017-Sep-17 21:00N 36°20' E 014°11'612.1
2017-Sep-17 20:30N 36°17' E 014°18'612.2
2017-Sep-17 20:00N 36°15' E 014°25'611.9
2017-Sep-17 19:30N 36°13' E 014°32'612.0
2017-Sep-17 19:00N 36°11' E 014°39'612.3
2017-Sep-17 18:30N 36°07' E 014°44'612.2
2017-Sep-17 18:00N 36°02' E 014°49'4 8.3
2017-Sep-17 17:30N 35°58' E 014°52'1 3.0
2017-Sep-17 17:00N 35°57' E 014°53'0 0.3
2017-Sep-17 16:29N 35°57' E 014°53'0 0.0
2017-Sep-17 16:00N 35°57' E 014°53'0 0.0
2017-Sep-17 15:30N 35°57' E 014°53'0 0.0
2017-Sep-17 15:00N 35°57' E 014°53'0 0.0
2017-Sep-17 14:30N 35°57' E 014°53'0 0.1
2017-Sep-17 14:00N 35°57' E 014°53'0 0.0
2017-Sep-17 13:30N 35°57' E 014°53'0 0.0
2017-Sep-17 13:00N 35°57' E 014°53'0 0.1
2017-Sep-17 12:30N 35°57' E 014°53'0 0.0
2017-Sep-17 12:00N 35°57' E 014°53'0 0.0
2017-Sep-17 11:30N 35°57' E 014°53'0 0.1
2017-Sep-17 11:00N 35°57' E 014°53'0 0.1
2017-Sep-17 10:30N 35°57' E 014°53'0 0.0
2017-Sep-17 10:00N 35°57' E 014°53'0 0.3
2017-Sep-17 09:30N 35°57' E 014°53'0 0.2
2017-Sep-17 09:00N 35°57' E 014°53'0 0.1
2017-Sep-17 08:30N 35°57' E 014°53'0 0.0
2017-Sep-17 08:00N 35°57' E 014°53'0 0.1
2017-Sep-17 07:30N 35°57' E 014°53'0 0.0
2017-Sep-17 07:00N 35°57' E 014°53'0 0.1
2017-Sep-17 06:30N 35°57' E 014°53'0 0.1
2017-Sep-17 05:59N 35°57' E 014°53'0 0.2
2017-Sep-17 05:30N 35°57' E 014°53'0 0.0
2017-Sep-17 05:00N 35°57' E 014°53'0 0.1
2017-Sep-17 04:30N 35°57' E 014°53'0 0.1
2017-Sep-17 04:00N 35°57' E 014°53'0 0.4
2017-Sep-17 03:30N 35°57' E 014°53'0 0.1
2017-Sep-17 03:00N 35°57' E 014°53'1 2.8
2017-Sep-17 02:30N 35°58' E 014°54'4 7.1
2017-Sep-17 02:00N 36°00' E 014°57'4 8.4
2017-Sep-17 01:30N 36°04' E 015°00'5 9.1
2017-Sep-17 01:00N 36°08' E 015°03'611.3
2017-Sep-17 00:30N 36°13' E 015°06'510.9
2017-Sep-17 00:00N 36°17' E 015°10'611.5
2017-Sep-16 23:30N 36°22' E 015°14'511.0
2017-Sep-16 23:00N 36°26' E 015°18'510.6
2017-Sep-16 22:30N 36°30' E 015°22'510.7
2017-Sep-16 22:00N 36°35' E 015°26'510.6
2017-Sep-16 21:30N 36°39' E 015°30'510.5
2017-Sep-16 21:00N 36°43' E 015°34'510.3
2017-Sep-16 20:30N 36°47' E 015°37'510.6
2017-Sep-16 20:00N 36°52' E 015°41'611.1
2017-Sep-16 19:30N 36°56' E 015°45'611.1
2017-Sep-16 19:00N 37°01' E 015°49'611.2
2017-Sep-16 18:30N 37°05' E 015°53'611.3
2017-Sep-16 18:00N 37°10' E 015°57'611.6
2017-Sep-16 17:30N 37°15' E 016°02'611.8
2017-Sep-16 17:00N 37°20' E 016°06'612.0
2017-Sep-16 16:28N 37°25' E 016°10'612.0
2017-Sep-16 15:59N 37°30' E 016°15'611.8
2017-Sep-16 15:30N 37°34' E 016°19'611.8
2017-Sep-16 15:00N 37°39' E 016°23'611.7
2017-Sep-16 14:30N 37°44' E 016°28'1011.8
2017-Sep-16 13:40N 37°52' E 016°35'211.8
2017-Sep-16 13:29N 37°54' E 016°36'611.9
2017-Sep-16 13:00N 37°58' E 016°41'811.9
2017-Sep-16 12:19N 38°05' E 016°47'412.1
2017-Sep-16 12:00N 38°08' E 016°50'611.9
2017-Sep-16 11:30N 38°13' E 016°54'611.9
2017-Sep-16 11:00N 38°18' E 016°58'611.9
2017-Sep-16 10:30N 38°23' E 017°02'1112.0
2017-Sep-16 09:33N 38°32' E 017°11'112.2
2017-Sep-16 09:30N 38°32' E 017°11'1012.1
2017-Sep-16 08:42N 38°40' E 017°19'212.2
2017-Sep-16 08:30N 38°42' E 017°20'612.2
2017-Sep-16 08:00N 38°47' E 017°25'612.1
2017-Sep-16 07:30N 38°52' E 017°29'612.3
2017-Sep-16 07:00N 38°58' E 017°29'612.2
2017-Sep-16 06:30N 39°04' E 017°29'612.3
2017-Sep-16 06:00N 39°11' E 017°29'713.2
2017-Sep-16 05:30N 39°17' E 017°29'713.4
2017-Sep-16 05:00N 39°24' E 017°29'612.4
2017-Sep-16 04:30N 39°30' E 017°28'612.5
2017-Sep-16 04:00N 39°36' E 017°26'612.6
2017-Sep-16 03:30N 39°42' E 017°24'612.7
2017-Sep-16 03:00N 39°48' E 017°21'612.6
2017-Sep-16 02:30N 39°54' E 017°19'612.3
2017-Sep-16 02:00N 40°00' E 017°17'611.9
2017-Sep-16 01:30N 40°06' E 017°14'612.0
2017-Sep-16 01:00N 40°11' E 017°11'612.3
2017-Sep-16 00:30N 40°17' E 017°09'612.2
2017-Sep-16 00:00N 40°23' E 017°07'5 9.1
2017-Sep-15 23:30N 40°26' E 017°11'3 4.9
2017-Sep-15 22:58N 40°29' E 017°13'0 0.0
2017-Sep-15 22:28N 40°29' E 017°13'0 0.0
2017-Sep-15 21:58N 40°29' E 017°13'0 0.0
2017-Sep-15 21:28N 40°29' E 017°13'0 0.0
2017-Sep-15 20:58N 40°29' E 017°13'0 0.0
2017-Sep-15 20:28N 40°29' E 017°13'0 0.1
2017-Sep-15 19:58N 40°29' E 017°13'0 0.0
2017-Sep-15 19:28N 40°29' E 017°13'0 0.0
2017-Sep-15 18:58N 40°29' E 017°13'0 0.0
2017-Sep-15 18:28N 40°29' E 017°13'0 0.0
2017-Sep-15 17:58N 40°29' E 017°13'0 0.0
2017-Sep-15 17:28N 40°29' E 017°13'0 0.0
2017-Sep-15 16:58N 40°29' E 017°13'0 0.0
2017-Sep-15 16:28N 40°29' E 017°13'0 0.0
2017-Sep-15 15:58N 40°29' E 017°13'0 0.0
2017-Sep-15 15:28N 40°29' E 017°13'0 0.0
2017-Sep-15 14:58N 40°29' E 017°13'0 0.0
2017-Sep-15 14:28N 40°29' E 017°13'0 0.0
2017-Sep-15 13:58N 40°29' E 017°13'0 0.0
2017-Sep-15 13:28N 40°29' E 017°13'0 0.0
2017-Sep-15 12:58N 40°29' E 017°13'0 0.0
2017-Sep-15 12:28N 40°29' E 017°13'0 0.0
2017-Sep-15 11:58N 40°29' E 017°13'0 0.0
2017-Sep-15 11:28N 40°29' E 017°13'0 0.0
2017-Sep-15 10:58N 40°29' E 017°13'0 0.0
2017-Sep-15 10:28N 40°29' E 017°13'0 0.0
2017-Sep-15 09:58N 40°29' E 017°13'0 0.0
2017-Sep-15 09:28N 40°29' E 017°13'0 0.0
2017-Sep-15 08:58N 40°29' E 017°13'  
Track history (hours):
 
Tides and Currents Weather Stations Pressure Air Temp Water Temp Dewpoint Dewpoint Depression Visibility Wind Speed Wind Dir Waves Ship Positions

Clara

Last reported at 2017-Sep-25 08:42 UTC. Time now 2017-Sep-25 09:55 UTC.
Position N 49°54' W 002°29'.

Length 225 m; draft 8.6 m.

Type: Cargo ship. MMSI: 636092248.

Date/timePositionNaut miles runAvg speedWind from/ knotsBaromVisibWave heightAir tempDewpointWater temp
2017-Sep-25 08:42N 49°54' W 002°29'414.1
2017-Sep-25 08:25N 49°53' W 002°35'613.9
2017-Sep-25 08:00N 49°51' W 002°44'713.4
2017-Sep-25 07:30N 49°49' W 002°53'613.1
2017-Sep-25 07:01N 49°45' W 003°02'612.8
2017-Sep-25 06:31N 49°42' W 003°10'612.6
2017-Sep-25 06:00N 49°39' W 003°19'712.5
2017-Sep-25 05:29N 49°36' W 003°28'712.5
2017-Sep-25 04:58N 49°32' W 003°36'612.3
2017-Sep-25 04:29N 49°29' W 003°44'712.1
2017-Sep-25 03:52N 49°26' W 003°54'511.8
2017-Sep-25 03:25N 49°23' W 004°01'1211.6
2017-Sep-25 02:22N 49°17' W 004°18'411.3
2017-Sep-25 02:00N 49°15' W 004°23'1210.9
2017-Sep-25 00:56N 49°09' W 004°38'1910.7
2017-Sep-24 23:07N 48°59' W 005°03'110.7
2017-Sep-24 23:00N 48°58' W 005°05'611.0
2017-Sep-24 22:28N 48°55' W 005°13'510.9
2017-Sep-24 21:59N 48°53' W 005°20'510.9
2017-Sep-24 21:29N 48°50' W 005°27'511.1
2017-Sep-24 21:00N 48°48' W 005°35'2511.9
2017-Sep-24 18:53N 48°27' W 005°55'1412.6
2017-Sep-24 17:48N 48°14' W 006°04'1312.8
2017-Sep-24 16:48N 48°03' W 006°12'2812.5
2017-Sep-24 14:33N 47°38' W 006°31'  
2017-Sep-22 02:00N 36°40' W 008°55'611.6
2017-Sep-22 01:30N 36°38' W 008°48'711.8
2017-Sep-22 00:55N 36°36' W 008°40'511.7
2017-Sep-22 00:30N 36°34' W 008°34'711.9
2017-Sep-21 23:54N 36°32' W 008°25'512.2
2017-Sep-21 23:30N 36°31' W 008°20'612.3
2017-Sep-21 23:00N 36°29' W 008°12'612.4
2017-Sep-21 22:30N 36°27' W 008°05'397 9.8
2017-Sep-20 05:59N 36°42' E 000°08'812.6
2017-Sep-20 05:20N 36°44' E 000°18'1312.5
2017-Sep-20 04:19N 36°45' E 000°34'5112.5
2017-Sep-20 00:13N 36°53' E 001°37'38211.8
2017-Sep-18 15:50N 37°39' E 009°34'412.6
2017-Sep-18 15:30N 37°39' E 009°39'12812.4
2017-Sep-18 05:12N 37°01' E 012°13'212.8
2017-Sep-18 05:00N 36°60' E 012°16'612.5
2017-Sep-18 04:29N 36°57' E 012°23'612.5
2017-Sep-18 04:00N 36°55' E 012°30'612.7
2017-Sep-18 03:30N 36°52' E 012°38'612.8
2017-Sep-18 03:00N 36°50' E 012°45'612.8
2017-Sep-18 02:30N 36°47' E 012°52'912.9
2017-Sep-18 01:46N 36°43' E 013°03'312.8
2017-Sep-18 01:30N 36°42' E 013°07'712.8
2017-Sep-18 00:56N 36°39' E 013°15'612.8
2017-Sep-18 00:29N 36°37' E 013°22'612.7
2017-Sep-18 00:00N 36°34' E 013°29'712.4
2017-Sep-17 23:28N 36°31' E 013°36'612.3
2017-Sep-17 23:00N 36°29' E 013°43'612.1
2017-Sep-17 22:30N 36°27' E 013°50'612.1
2017-Sep-17 22:00N 36°25' E 013°57'612.4
2017-Sep-17 21:30N 36°22' E 014°04'612.3
2017-Sep-17 21:00N 36°20' E 014°11'612.1
2017-Sep-17 20:30N 36°17' E 014°18'612.2
2017-Sep-17 20:00N 36°15' E 014°25'611.9
2017-Sep-17 19:30N 36°13' E 014°32'612.0
2017-Sep-17 19:00N 36°11' E 014°39'612.3
2017-Sep-17 18:30N 36°07' E 014°44'612.2
2017-Sep-17 18:00N 36°02' E 014°49'4 8.3
2017-Sep-17 17:30N 35°58' E 014°52'1 3.0
2017-Sep-17 17:00N 35°57' E 014°53'0 0.3
2017-Sep-17 16:29N 35°57' E 014°53'0 0.0
2017-Sep-17 16:00N 35°57' E 014°53'0 0.0
2017-Sep-17 15:30N 35°57' E 014°53'0 0.0
2017-Sep-17 15:00N 35°57' E 014°53'0 0.0
2017-Sep-17 14:30N 35°57' E 014°53'0 0.1
2017-Sep-17 14:00N 35°57' E 014°53'0 0.0
2017-Sep-17 13:30N 35°57' E 014°53'0 0.0
2017-Sep-17 13:00N 35°57' E 014°53'0 0.1
2017-Sep-17 12:30N 35°57' E 014°53'0 0.0
2017-Sep-17 12:00N 35°57' E 014°53'0 0.0
2017-Sep-17 11:30N 35°57' E 014°53'0 0.1
2017-Sep-17 11:00N 35°57' E 014°53'0 0.1
2017-Sep-17 10:30N 35°57' E 014°53'0 0.0
2017-Sep-17 10:00N 35°57' E 014°53'0 0.3
2017-Sep-17 09:30N 35°57' E 014°53'0 0.2
2017-Sep-17 09:00N 35°57' E 014°53'0 0.1
2017-Sep-17 08:30N 35°57' E 014°53'0 0.0
2017-Sep-17 08:00N 35°57' E 014°53'0 0.1
2017-Sep-17 07:30N 35°57' E 014°53'0 0.0
2017-Sep-17 07:00N 35°57' E 014°53'0 0.1
2017-Sep-17 06:30N 35°57' E 014°53'0 0.1
2017-Sep-17 05:59N 35°57' E 014°53'0 0.2
2017-Sep-17 05:30N 35°57' E 014°53'0 0.0
2017-Sep-17 05:00N 35°57' E 014°53'0 0.1
2017-Sep-17 04:30N 35°57' E 014°53'0 0.1
2017-Sep-17 04:00N 35°57' E 014°53'0 0.4
2017-Sep-17 03:30N 35°57' E 014°53'0 0.1
2017-Sep-17 03:00N 35°57' E 014°53'1 2.8
2017-Sep-17 02:30N 35°58' E 014°54'4 7.1
2017-Sep-17 02:00N 36°00' E 014°57'4 8.4
2017-Sep-17 01:30N 36°04' E 015°00'5 9.1
2017-Sep-17 01:00N 36°08' E 015°03'611.3
2017-Sep-17 00:30N 36°13' E 015°06'510.9
2017-Sep-17 00:00N 36°17' E 015°10'611.5
2017-Sep-16 23:30N 36°22' E 015°14'511.0
2017-Sep-16 23:00N 36°26' E 015°18'510.6
2017-Sep-16 22:30N 36°30' E 015°22'510.7
2017-Sep-16 22:00N 36°35' E 015°26'510.6
2017-Sep-16 21:30N 36°39' E 015°30'510.5
2017-Sep-16 21:00N 36°43' E 015°34'510.3
2017-Sep-16 20:30N 36°47' E 015°37'510.6
2017-Sep-16 20:00N 36°52' E 015°41'611.1
2017-Sep-16 19:30N 36°56' E 015°45'611.1
2017-Sep-16 19:00N 37°01' E 015°49'611.2
2017-Sep-16 18:30N 37°05' E 015°53'611.3
2017-Sep-16 18:00N 37°10' E 015°57'611.6
2017-Sep-16 17:30N 37°15' E 016°02'611.8
2017-Sep-16 17:00N 37°20' E 016°06'612.0
2017-Sep-16 16:28N 37°25' E 016°10'612.0
2017-Sep-16 15:59N 37°30' E 016°15'611.8
2017-Sep-16 15:30N 37°34' E 016°19'611.8
2017-Sep-16 15:00N 37°39' E 016°23'611.7
2017-Sep-16 14:30N 37°44' E 016°28'1011.8
2017-Sep-16 13:40N 37°52' E 016°35'211.8
2017-Sep-16 13:29N 37°54' E 016°36'611.9
2017-Sep-16 13:00N 37°58' E 016°41'811.9
2017-Sep-16 12:19N 38°05' E 016°47'412.1
2017-Sep-16 12:00N 38°08' E 016°50'611.9
2017-Sep-16 11:30N 38°13' E 016°54'611.9
2017-Sep-16 11:00N 38°18' E 016°58'611.9
2017-Sep-16 10:30N 38°23' E 017°02'1112.0
2017-Sep-16 09:33N 38°32' E 017°11'112.2
2017-Sep-16 09:30N 38°32' E 017°11'1012.1
2017-Sep-16 08:42N 38°40' E 017°19'212.2
2017-Sep-16 08:30N 38°42' E 017°20'612.2
2017-Sep-16 08:00N 38°47' E 017°25'612.1
2017-Sep-16 07:30N 38°52' E 017°29'612.3
2017-Sep-16 07:00N 38°58' E 017°29'612.2
2017-Sep-16 06:30N 39°04' E 017°29'612.3
2017-Sep-16 06:00N 39°11' E 017°29'713.2
2017-Sep-16 05:30N 39°17' E 017°29'713.4
2017-Sep-16 05:00N 39°24' E 017°29'612.4
2017-Sep-16 04:30N 39°30' E 017°28'612.5
2017-Sep-16 04:00N 39°36' E 017°26'612.6
2017-Sep-16 03:30N 39°42' E 017°24'612.7
2017-Sep-16 03:00N 39°48' E 017°21'612.6
2017-Sep-16 02:30N 39°54' E 017°19'612.3
2017-Sep-16 02:00N 40°00' E 017°17'611.9
2017-Sep-16 01:30N 40°06' E 017°14'612.0
2017-Sep-16 01:00N 40°11' E 017°11'612.3
2017-Sep-16 00:30N 40°17' E 017°09'612.2
2017-Sep-16 00:00N 40°23' E 017°07'5 9.1
2017-Sep-15 23:30N 40°26' E 017°11'3 4.9
2017-Sep-15 22:58N 40°29' E 017°13'0 0.0
2017-Sep-15 22:28N 40°29' E 017°13'0 0.0
2017-Sep-15 21:58N 40°29' E 017°13'0 0.0
2017-Sep-15 21:28N 40°29' E 017°13'0 0.0
2017-Sep-15 20:58N 40°29' E 017°13'0 0.0
2017-Sep-15 20:28N 40°29' E 017°13'0 0.1
2017-Sep-15 19:58N 40°29' E 017°13'0 0.0
2017-Sep-15 19:28N 40°29' E 017°13'0 0.0
2017-Sep-15 18:58N 40°29' E 017°13'0 0.0
2017-Sep-15 18:28N 40°29' E 017°13'0 0.0
2017-Sep-15 17:58N 40°29' E 017°13'0 0.0
2017-Sep-15 17:28N 40°29' E 017°13'0 0.0
2017-Sep-15 16:58N 40°29' E 017°13'0 0.0
2017-Sep-15 16:28N 40°29' E 017°13'0 0.0
2017-Sep-15 15:58N 40°29' E 017°13'0 0.0
2017-Sep-15 15:28N 40°29' E 017°13'0 0.0
2017-Sep-15 14:58N 40°29' E 017°13'0 0.0
2017-Sep-15 14:28N 40°29' E 017°13'0 0.0
2017-Sep-15 13:58N 40°29' E 017°13'0 0.0
2017-Sep-15 13:28N 40°29' E 017°13'0 0.0
2017-Sep-15 12:58N 40°29' E 017°13'0 0.0
2017-Sep-15 12:28N 40°29' E 017°13'0 0.0
2017-Sep-15 11:58N 40°29' E 017°13'0 0.0
2017-Sep-15 11:28N 40°29' E 017°13'0 0.0
2017-Sep-15 10:58N 40°29' E 017°13'0 0.0
2017-Sep-15 10:28N 40°29' E 017°13'0 0.0
2017-Sep-15 09:58N 40°29' E 017°13'0 0.0
2017-Sep-15 09:28N 40°29' E 017°13'0 0.0
2017-Sep-15 08:58N 40°29' E 017°13'  

Dump ship's entire track history